Time;durP1;ratioP1;P1;durP2;ratioP2;P2;SDS_P1;SDS_P2;PMS_P1;PMS_P2;Temp;Humidity;BMP_temperature;BMP_pressure;BME280_temperature;BME280_humidity;BME280_pressure;Samples;Min_cycle;Max_cycle;Signal;HPM_P1;HPM_P2
2022/07/09 00:00:46;;;;;;;;;;;;;;;23.27;54.88;100576.94;7403621;19;1304;-60
2022/07/09 00:03:17;;;;;;;;;;;;;;;23.17;55.07;100592.44;7400855;19;1759;-59
2022/07/09 00:05:45;;;;;;;;;;;;;;;23.10;55.23;100594.13;7403258;19;1628;-60
2022/07/09 00:08:13;;;;;;;;;;;;;;;23.13;54.76;100605.44;7403190;19;1383;-61
2022/07/09 00:10:42;;;;;;;;;;;;;;;23.13;54.59;100585.72;7402480;19;1859;-57
2022/07/09 00:13:10;;;;;;;;;;;;;;;23.11;54.80;100576.94;7403235;19;1573;-58
2022/07/09 00:15:38;;;;;;;;;;;;;;;23.15;54.64;100586.38;7402712;19;1800;-60
2022/07/09 00:18:07;;;;;;;;;;;;;;;23.18;54.46;100586.06;7402504;19;1304;-58
2022/07/09 00:20:38;;;;;;;;;;;;;;;23.07;54.74;100586.38;7408726;19;1410;-60
2022/07/09 00:23:06;;;;;;;;;;;;;;;23.10;54.81;100577.94;7410570;19;1367;-61
2022/07/09 00:25:35;;;;;;;;;;;;;;;23.06;54.74;100581.97;7411024;19;1549;-57
2022/07/09 00:28:03;;;;;;;;;;;;;;;23.09;54.75;100578.97;7410516;19;1356;-60
2022/07/09 00:30:31;;;;;;;;;;;;;;;23.18;54.82;100586.91;7409455;19;1853;-60
2022/07/09 00:33:00;;;;;;;;;;;;;;;23.19;54.67;100585.03;7409553;19;1377;-58
2022/07/09 00:35:28;;;;;;;;;;;;;;;23.14;55.14;100584.69;7410186;19;1431;-58
2022/07/09 00:37:59;;;;;;;;;;;;;;;23.10;54.90;100589.59;7410351;19;1453;-61
2022/07/09 00:40:27;;;;;;;;;;;;;;;23.16;54.75;100593.47;7410210;19;1456;-60
2022/07/09 00:42:56;;;;;;;;;;;;;;;23.12;55.08;100582.19;7410181;19;1367;-58
2022/07/09 00:45:24;;;;;;;;;;;;;;;23.14;55.05;100579.28;7409530;19;1462;-62
2022/07/09 00:47:52;;;;;;;;;;;;;;;23.04;55.15;100590.25;7410623;19;1363;-60
2022/07/09 00:50:21;;;;;;;;;;;;;;;23.06;54.84;100581.97;7408904;19;1374;-57
2022/07/09 00:52:50;;;;;;;;;;;;;;;23.11;54.79;100582.34;7407923;19;1845;-60
2022/07/09 00:55:21;;;;;;;;;;;;;;;23.12;54.75;100592.09;7408829;19;1458;-58
2022/07/09 00:57:50;;;;;;;;;;;;;;;23.07;54.81;100572.91;7408897;19;1297;-57
2022/07/09 01:00:18;;;;;;;;;;;;;;;23.12;54.99;100597.50;7408356;19;1545;-58
2022/07/09 01:02:47;;;;;;;;;;;;;;;23.06;54.80;100579.28;7406957;19;1420;-60
2022/07/09 01:05:16;;;;;;;;;;;;;;;23.06;54.80;100600.84;7409638;19;1339;-61
2022/07/09 01:07:44;;;;;;;;;;;;;;;22.98;54.58;100582.81;7410002;19;1359;-60
2022/07/09 01:10:12;;;;;;;;;;;;;;;22.86;55.10;100595.75;7409760;19;1326;-58
2022/07/09 01:12:43;;;;;;;;;;;;;;;22.90;54.99;100580.94;7406651;19;1838;-57
2022/07/09 01:15:12;;;;;;;;;;;;;;;22.94;54.75;100570.63;7408347;19;1334;-61
2022/07/09 01:17:40;;;;;;;;;;;;;;;22.98;54.73;100585.50;7408498;19;1364;-60
2022/07/09 01:20:09;;;;;;;;;;;;;;;23.00;54.46;100586.19;7409079;19;1303;-60
2022/07/09 01:22:41;;;;;;;;;;;;;;;23.06;54.53;100592.75;7408566;19;1770;-58
2022/07/09 01:25:10;;;;;;;;;;;;;;;23.03;54.38;100578.59;7408099;19;1931;-57
2022/07/09 01:27:39;;;;;;;;;;;;;;;22.91;54.46;100584.47;7407236;19;1783;-58
2022/07/09 01:30:08;;;;;;;;;;;;;;;22.86;54.43;100582.28;7406707;19;1265;-58
2022/07/09 01:32:36;;;;;;;;;;;;;;;22.75;54.61;100575.31;7405880;19;1860;-57
2022/07/09 01:35:05;;;;;;;;;;;;;;;22.84;54.68;100603.16;7408098;19;1351;-57
2022/07/09 01:37:34;;;;;;;;;;;;;;;22.89;54.35;100581.94;7408461;19;1506;-59
2022/07/09 01:40:05;;;;;;;;;;;;;;;22.86;54.51;100576.03;7407614;19;1487;-61
2022/07/09 01:42:33;;;;;;;;;;;;;;;22.87;54.32;100588.50;7407467;19;1379;-60
2022/07/09 01:45:01;;;;;;;;;;;;;;;22.89;54.39;100567.63;7407159;19;1359;-57
2022/07/09 01:47:30;;;;;;;;;;;;;;;22.96;54.50;100579.41;7408325;19;1331;-58
2022/07/09 01:49:58;;;;;;;;;;;;;;;23.02;54.38;100587.72;7408042;19;1778;-60
2022/07/09 01:52:27;;;;;;;;;;;;;;;23.08;54.28;100588.91;7406945;19;1855;-61
2022/07/09 01:54:55;;;;;;;;;;;;;;;23.00;54.07;100578.09;7407482;19;1740;-58
2022/07/09 01:57:26;;;;;;;;;;;;;;;23.01;54.06;100587.84;7407165;19;1439;-61
2022/07/09 01:59:55;;;;;;;;;;;;;;;22.98;54.11;100578.25;7408280;19;1371;-61
2022/07/09 02:02:23;;;;;;;;;;;;;;;22.95;54.43;100581.25;7398755;19;1425;-61
2022/07/09 02:04:52;;;;;;;;;;;;;;;22.83;54.64;100566.41;7408032;19;1399;-61
2022/07/09 02:07:20;;;;;;;;;;;;;;;22.77;54.63;100592.19;7406334;19;1336;-60
2022/07/09 02:09:49;;;;;;;;;;;;;;;22.77;54.77;100589.47;7405834;19;1628;-60
2022/07/09 02:12:17;;;;;;;;;;;;;;;22.84;54.16;100578.91;7405615;19;1852;-61
2022/07/09 02:14:49;;;;;;;;;;;;;;;22.80;54.21;100577.53;7407839;19;1386;-60
2022/07/09 02:17:17;;;;;;;;;;;;;;;22.86;54.37;100584.97;7406388;19;1762;-61
2022/07/09 02:19:46;;;;;;;;;;;;;;;22.86;53.87;100579.59;7406267;19;1629;-61
2022/07/09 02:22:14;;;;;;;;;;;;;;;22.86;54.25;100598.44;7404976;19;1522;-61
2022/07/09 02:24:42;;;;;;;;;;;;;;;22.88;53.84;100582.97;7405753;19;1538;-61
2022/07/09 02:27:11;;;;;;;;;;;;;;;22.96;53.69;100584.78;7406404;19;1250;-61
2022/07/09 02:29:39;;;;;;;;;;;;;;;22.95;54.21;100586.66;7406763;19;1743;-61
2022/07/09 02:32:11;;;;;;;;;;;;;;;22.89;54.29;100581.94;7406555;19;1840;-61
2022/07/09 02:34:40;;;;;;;;;;;;;;;22.83;54.24;100577.19;7405893;19;1692;-61
2022/07/09 02:37:08;;;;;;;;;;;;;;;22.82;54.36;100575.53;7406913;19;1541;-61
2022/07/09 02:39:37;;;;;;;;;;;;;;;22.88;54.32;100582.97;7407255;19;1636;-62
2022/07/09 02:42:05;;;;;;;;;;;;;;;22.91;54.50;100589.84;7406966;19;1613;-59
2022/07/09 02:44:34;;;;;;;;;;;;;;;22.86;54.39;100590.38;7406758;19;1747;-61
2022/07/09 02:47:02;;;;;;;;;;;;;;;22.91;54.11;100595.25;7405594;19;1571;-61
2022/07/09 02:49:33;;;;;;;;;;;;;;;22.81;54.27;100601.63;7404774;19;1439;-61
2022/07/09 02:52:01;;;;;;;;;;;;;;;22.79;54.22;100597.41;7403273;19;1866;-57
2022/07/09 02:54:30;;;;;;;;;;;;;;;22.77;54.09;100599.44;7405148;19;1397;-58
2022/07/09 02:56:58;;;;;;;;;;;;;;;22.83;53.90;100614.94;7405448;19;1659;-58
2022/07/09 02:59:27;;;;;;;;;;;;;;;22.87;53.88;100610.06;7405824;19;1364;-57
2022/07/09 03:01:55;;;;;;;;;;;;;;;22.88;53.80;100607.22;7403636;19;1672;-58
2022/07/09 03:04:23;;;;;;;;;;;;;;;22.93;54.11;100620.19;7404238;19;1470;-57
2022/07/09 03:06:55;;;;;;;;;;;;;;;22.93;54.19;100621.03;7404821;19;1463;-57
2022/07/09 03:09:23;;;;;;;;;;;;;;;22.88;54.01;100611.75;7404975;19;1557;-57
2022/07/09 03:11:51;;;;;;;;;;;;;;;22.82;54.49;100632.97;7404258;19;1864;-58
2022/07/09 03:14:19;;;;;;;;;;;;;;;22.76;54.30;100611.22;7404343;19;1561;-57
2022/07/09 03:16:48;;;;;;;;;;;;;;;22.86;54.67;100641.59;7405005;19;1596;-57
2022/07/09 03:19:16;;;;;;;;;;;;;;;22.84;54.62;100630.97;7403965;19;1411;-57
2022/07/09 03:21:45;;;;;;;;;;;;;;;22.86;54.64;100619.16;7404864;19;1355;-57
2022/07/09 03:24:16;;;;;;;;;;;;;;;22.83;54.43;100640.03;7404805;19;1474;-57
2022/07/09 03:26:44;;;;;;;;;;;;;;;22.86;54.46;100622.72;7404703;19;1451;-58
2022/07/09 03:29:12;;;;;;;;;;;;;;;22.84;54.75;100622.03;7403405;19;1416;-57
2022/07/09 03:31:41;;;;;;;;;;;;;;;22.82;54.71;100629.44;7403418;19;1873;-58
2022/07/09 03:34:09;;;;;;;;;;;;;;;22.89;54.60;100625.06;7403243;19;1361;-58
2022/07/09 03:36:37;;;;;;;;;;;;;;;22.89;54.67;100640.41;7402407;19;1383;-58
2022/07/09 03:39:06;;;;;;;;;;;;;;;22.88;54.67;100652.19;7403862;19;1301;-58
2022/07/09 03:41:37;;;;;;;;;;;;;;;22.93;54.69;100655.25;7404814;19;1592;-57
2022/07/09 03:44:05;;;;;;;;;;;;;;;22.90;54.67;100653.75;7403690;19;1376;-57
2022/07/09 03:46:33;;;;;;;;;;;;;;;22.90;55.01;100637.56;7404674;19;1529;-58
2022/07/09 03:49:02;;;;;;;;;;;;;;;22.94;54.64;100655.09;7403147;19;1755;-57
2022/07/09 03:51:30;;;;;;;;;;;;;;;22.95;54.63;100667.56;7403179;19;1605;-57
2022/07/09 03:53:59;;;;;;;;;;;;;;;22.91;54.78;100659.97;7403739;19;1842;-57
2022/07/09 03:56:27;;;;;;;;;;;;;;;22.86;54.89;100665.84;7410916;19;1447;-57
2022/07/09 03:58:58;;;;;;;;;;;;;;;22.87;54.67;100659.44;7411792;19;1289;-57
2022/07/09 04:01:26;;;;;;;;;;;;;;;22.93;54.57;100671.44;7409270;19;1437;-57
2022/07/09 04:03:55;;;;;;;;;;;;;;;22.92;54.80;100661.63;7410494;19;1289;-57
2022/07/09 04:06:23;;;;;;;;;;;;;;;22.85;54.69;100661.47;7408673;19;1470;-57
2022/07/09 04:08:52;;;;;;;;;;;;;;;22.83;54.51;100664.31;7410351;19;1372;-57
2022/07/09 04:11:20;;;;;;;;;;;;;;;22.82;54.57;100659.94;7408245;19;1332;-57
2022/07/09 04:13:49;;;;;;;;;;;;;;;22.89;55.01;100651.19;7404298;19;1888;-57
2022/07/09 04:16:20;;;;;;;;;;;;;;;22.92;54.78;100645.47;7407496;19;1550;-57
2022/07/09 04:18:48;;;;;;;;;;;;;;;22.92;55.05;100656.25;7409351;19;1268;-57
2022/07/09 04:21:17;;;;;;;;;;;;;;;22.91;54.67;100650.00;7410343;19;1343;-57
2022/07/09 04:23:45;;;;;;;;;;;;;;;22.95;54.47;100648.69;7410298;19;1684;-57
2022/07/09 04:26:14;;;;;;;;;;;;;;;22.97;54.75;100651.22;7409420;19;1466;-58
2022/07/09 04:28:42;;;;;;;;;;;;;;;22.95;54.57;100645.97;7409819;19;1379;-57
2022/07/09 04:31:10;;;;;;;;;;;;;;;23.02;54.96;100657.00;7410748;19;1277;-57
2022/07/09 04:33:41;;;;;;;;;;;;;;;23.05;54.81;100656.66;7407448;19;1856;-57
2022/07/09 04:36:10;;;;;;;;;;;;;;;23.11;54.92;100655.16;7410083;19;1343;-57
2022/07/09 04:38:38;;;;;;;;;;;;;;;23.03;54.84;100662.22;7402598;19;1695;-61
2022/07/09 04:41:07;;;;;;;;;;;;;;;22.97;54.94;100643.13;7404765;19;1696;-61
2022/07/09 04:43:35;;;;;;;;;;;;;;;22.97;55.07;100656.63;7404690;19;1596;-61
2022/07/09 04:46:04;;;;;;;;;;;;;;;22.93;55.24;100660.66;7400727;19;1423;-62
2022/07/09 04:48:32;;;;;;;;;;;;;;;23.05;54.89;100670.16;7404398;19;1478;-60
2022/07/09 04:51:03;;;;;;;;;;;;;;;22.92;54.89;100630.16;7404296;19;1486;-62
2022/07/09 04:53:32;;;;;;;;;;;;;;;23.05;54.84;100663.91;7405311;19;1861;-61
2022/07/09 04:56:00;;;;;;;;;;;;;;;23.13;54.68;100647.75;7405793;19;1620;-62
2022/07/09 04:58:28;;;;;;;;;;;;;;;23.13;55.05;100659.38;7403910;19;1493;-61
2022/07/09 05:00:57;;;;;;;;;;;;;;;23.15;55.21;100675.41;7405011;19;1375;-62
2022/07/09 05:03:25;;;;;;;;;;;;;;;23.18;55.14;100673.22;7399808;19;2269;-37
2022/07/09 05:05:54;;;;;;;;;;;;;;;23.19;54.81;100664.09;7398277;19;1810;-37
2022/07/09 05:08:25;;;;;;;;;;;;;;;23.31;54.73;100659.22;7399657;19;1864;-36
2022/07/09 05:10:53;;;;;;;;;;;;;;;23.39;54.73;100661.94;7399504;19;1641;-37
2022/07/09 05:13:21;;;;;;;;;;;;;;;23.47;54.74;100653.00;7398161;19;1860;-37
2022/07/09 05:15:49;;;;;;;;;;;;;;;23.52;54.87;100663.31;7399675;19;1559;-36
2022/07/09 05:18:18;;;;;;;;;;;;;;;23.53;54.64;100648.81;7398171;19;1863;-37
2022/07/09 05:20:46;;;;;;;;;;;;;;;23.54;54.67;100654.03;7398348;19;1649;-37
2022/07/09 05:23:14;;;;;;;;;;;;;;;23.58;54.93;100651.84;7399100;19;1573;-36
2022/07/09 05:25:45;;;;;;;;;;;;;;;23.57;55.06;100648.28;7400161;19;1719;-36
2022/07/09 05:28:13;;;;;;;;;;;;;;;23.59;54.82;100669.72;7398519;19;1837;-37
2022/07/09 05:30:42;;;;;;;;;;;;;;;23.57;54.93;100639.34;7399166;19;1564;-36
2022/07/09 05:33:10;;;;;;;;;;;;;;;23.50;53.73;100646.44;7396758;19;1891;-37
2022/07/09 05:35:38;;;;;;;;;;;;;;;23.60;53.71;100666.84;7397990;19;1651;-36
2022/07/09 05:38:07;;;;;;;;;;;;;;;23.63;54.17;100641.38;7398067;19;1556;-37
2022/07/09 05:40:35;;;;;;;;;;;;;;;23.62;53.82;100647.81;7397313;19;1581;-36
2022/07/09 05:43:06;;;;;;;;;;;;;;;23.60;52.97;100639.03;7398736;19;1637;-37
2022/07/09 05:45:34;;;;;;;;;;;;;;;23.60;53.82;100639.03;7397997;19;1924;-36
2022/07/09 05:48:03;;;;;;;;;;;;;;;23.58;53.99;100641.06;7399331;19;1522;-36
2022/07/09 05:50:31;;;;;;;;;;;;;;;23.63;53.60;100661.13;7396446;19;1508;-36
2022/07/09 05:52:59;;;;;;;;;;;;;;;23.65;53.66;100642.03;7396582;19;1866;-36
2022/07/09 05:55:28;;;;;;;;;;;;;;;23.65;53.73;100644.75;7397275;19;1890;-37
2022/07/09 05:57:57;;;;;;;;;;;;;;;23.59;53.62;100642.72;7398954;19;1686;-36
2022/07/09 06:00:28;;;;;;;;;;;;;;;23.61;52.90;100646.09;7397760;19;1644;-36
2022/07/09 06:02:56;;;;;;;;;;;;;;;23.57;51.47;100637.50;7396691;19;1905;-36
2022/07/09 06:05:25;;;;;;;;;;;;;;;23.58;52.27;100631.09;7397764;19;1901;-39
2022/07/09 06:07:53;;;;;;;;;;;;;;;23.65;52.56;100639.34;7398754;19;1663;-36
2022/07/09 06:10:21;;;;;;;;;;;;;;;23.68;52.85;100641.72;7397315;19;1909;-36
2022/07/09 06:12:49;;;;;;;;;;;;;;;23.69;53.53;100642.56;7396552;19;1865;-37
2022/07/09 06:15:18;;;;;;;;;;;;;;;23.69;54.02;100643.38;7397408;19;1707;-36
2022/07/09 06:17:50;;;;;;;;;;;;;;;23.67;53.33;100647.28;7395570;19;1647;-39
2022/07/09 06:20:18;;;;;;;;;;;;;;;23.61;51.37;100646.09;7394193;19;1625;-37
2022/07/09 06:22:46;;;;;;;;;;;;;;;23.68;53.49;100640.88;7399049;19;1815;-37
2022/07/09 06:25:15;;;;;;;;;;;;;;;23.64;53.36;100643.06;7398072;19;1495;-36
2022/07/09 06:27:43;;;;;;;;;;;;;;;23.59;51.85;100642.72;7396736;19;1993;-36
2022/07/09 06:30:12;;;;;;;;;;;;;;;23.55;51.68;100658.41;7397598;19;2086;-36
2022/07/09 06:32:40;;;;;;;;;;;;;;;23.65;53.14;100641.22;7395349;19;1902;-36
2022/07/09 06:35:11;;;;;;;;;;;;;;;23.68;53.66;100641.72;7394073;19;1480;-36
2022/07/09 06:37:41;;;;;;;;;;;;;;;23.72;53.81;100632.25;7395835;19;2007;-37
2022/07/09 06:40:10;;;;;;;;;;;;;;;23.74;54.00;100640.19;7396359;19;1698;-36
2022/07/09 06:42:38;;;;;;;;;;;;;;;23.80;53.67;100651.19;7396662;19;1612;-37
2022/07/09 06:45:07;;;;;;;;;;;;;;;23.75;53.80;100636.47;7395110;19;1660;-36
2022/07/09 06:47:35;;;;;;;;;;;;;;;23.74;53.65;100638.34;7396929;19;1665;-36
2022/07/09 06:50:04;;;;;;;;;;;;;;;23.75;53.91;100631.06;7396499;19;1740;-37
2022/07/09 06:52:34;;;;;;;;;;;;;;;23.78;53.61;100636.19;7396287;19;2265;-36
2022/07/09 06:55:03;;;;;;;;;;;;;;;23.75;53.05;100639.16;7396296;19;2006;-36
2022/07/09 06:57:31;;;;;;;;;;;;;;;23.76;53.73;100633.59;7396793;19;1838;-37
2022/07/09 06:59:59;;;;;;;;;;;;;;;23.69;52.11;100629.06;7397258;19;1645;-37
2022/07/09 07:02:28;;;;;;;;;;;;;;;23.70;53.23;100612.69;7394314;19;1467;-37
2022/07/09 07:04:56;;;;;;;;;;;;;;;23.75;53.71;100631.91;7394620;19;1997;-37
2022/07/09 07:07:24;;;;;;;;;;;;;;;23.77;53.81;100621.81;7394742;19;1835;-37
2022/07/09 07:09:55;;;;;;;;;;;;;;;23.80;53.84;100634.16;7396524;19;1610;-37
2022/07/09 07:12:23;;;;;;;;;;;;;;;23.80;52.31;100632.28;7395268;19;1368;-37
2022/07/09 07:17:40;;;;;;;;;;;;;;;23.89;52.51;100624.16;7392233;19;3099;-37
2022/07/09 07:20:17;;;;;;;;;;;;;;;23.94;52.44;100643.41;7395956;19;1476;-38
2022/07/09 07:22:56;;;;;;;;;;;;;;;23.99;50.91;100623.00;7395428;19;1474;-38
2022/07/09 07:25:29;;;;;;;;;;;;;;;24.02;51.48;100632.59;7390590;19;1450;-37
2022/07/09 07:27:58;;;;;;;;;;;;;;;24.10;51.36;100635.28;7396499;19;1709;-37
2022/07/09 07:30:44;;;;;;;;;;;;;;;24.12;51.62;100630.53;7396977;19;1567;-36
2022/07/09 07:36:10;;;;;;;;;;;;;;;24.15;51.43;100642.84;7392451;19;2437;-41
2022/07/09 07:38:39;;;;;;;;;;;;;;;24.09;51.94;100648.94;7396299;19;1552;-40
2022/07/09 07:41:09;;;;;;;;;;;;;;;24.11;51.55;100647.75;7397785;19;1827;-40
2022/07/09 07:43:47;;;;;;;;;;;;;;;24.19;50.36;100623.44;7398789;19;1824;-40
2022/07/09 07:46:16;;;;;;;;;;;;;;;24.28;49.59;100628.81;7397698;19;1633;-40
2022/07/09 07:48:44;;;;;;;;;;;;;;;24.21;50.49;100626.81;7397087;19;1949;-40
2022/07/09 07:51:13;;;;;;;;;;;;;;;24.24;50.56;100624.78;7398019;19;2022;-40
2022/07/09 07:53:42;;;;;;;;;;;;;;;24.22;51.69;100636.59;7400072;19;1848;-40
2022/07/09 07:56:14;;;;;;;;;;;;;;;24.22;51.28;100625.78;7399368;19;1705;-40
2022/07/09 07:58:42;;;;;;;;;;;;;;;24.21;51.76;100613.31;7399810;19;1765;-40
2022/07/09 08:01:13;;;;;;;;;;;;;;;24.24;50.85;100630.19;7397591;19;1823;-40
2022/07/09 08:03:46;;;;;;;;;;;;;;;24.21;51.43;100620.53;7400093;19;2009;-39
2022/07/09 08:06:14;;;;;;;;;;;;;;;24.26;51.30;100622.75;7398444;19;1976;-40
2022/07/09 08:08:44;;;;;;;;;;;;;;;24.20;51.86;100619.72;7397865;19;1597;-40
2022/07/09 08:11:14;;;;;;;;;;;;;;;24.24;50.79;100625.63;7396880;19;1944;-40
2022/07/09 08:13:43;;;;;;;;;;;;;;;24.22;51.81;100620.38;7398221;19;1857;-40
2022/07/09 08:16:11;;;;;;;;;;;;;;;24.22;51.62;100623.06;7398663;19;1674;-41
2022/07/09 08:18:39;;;;;;;;;;;;;;;24.24;51.49;100613.97;7398721;19;1658;-40
2022/07/09 08:21:08;;;;;;;;;;;;;;;24.20;51.36;100619.72;7395486;19;1932;-39
2022/07/09 08:23:51;;;;;;;;;;;;;;;24.26;50.47;100612.78;7398616;19;1542;-40
2022/07/09 08:26:22;;;;;;;;;;;;;;;24.31;50.42;100615.81;7397819;19;1879;-40
2022/07/09 08:28:51;;;;;;;;;;;;;;;24.42;50.11;100606.47;7397819;19;1724;-40
2022/07/09 08:31:19;;;;;;;;;;;;;;;24.30;50.31;100602.47;7397937;19;2083;-42
2022/07/09 08:33:48;;;;;;;;;;;;;;;24.39;49.87;100613.06;7397086;19;1867;-38
2022/07/09 08:36:17;;;;;;;;;;;;;;;24.45;49.38;100606.09;7398208;19;1653;-38
2022/07/09 08:38:46;;;;;;;;;;;;;;;24.36;50.21;100615.28;7395663;19;1807;-38
2022/07/09 08:41:16;;;;;;;;;;;;;;;24.35;49.73;100606.34;7403928;19;1752;-38
2022/07/09 08:43:50;;;;;;;;;;;;;;;24.40;49.42;100611.19;7405805;19;1729;-37
2022/07/09 08:46:19;;;;;;;;;;;;;;;24.42;49.01;100611.88;7406537;19;1967;-37
2022/07/09 08:48:48;;;;;;;;;;;;;;;24.50;48.50;100609.16;7404753;19;1957;-38
2022/07/09 08:51:16;;;;;;;;;;;;;;;24.57;48.94;100607.44;7405073;19;1935;-37
2022/07/09 08:53:45;;;;;;;;;;;;;;;24.67;48.68;100606.38;7406402;19;1856;-38
2022/07/09 08:56:14;;;;;;;;;;;;;;;24.60;49.22;100614.34;7405532;19;1882;-38
2022/07/09 08:58:42;;;;;;;;;;;;;;;24.69;48.50;100605.19;7404703;19;1830;-38
2022/07/09 09:01:14;;;;;;;;;;;;;;;24.59;48.38;100597.31;7403693;19;1877;-37
2022/07/09 09:03:43;;;;;;;;;;;;;;;24.49;49.08;100610.16;7404225;19;1738;-38
2022/07/09 09:06:12;;;;;;;;;;;;;;;24.42;50.31;100607.28;7404266;19;1823;-39
2022/07/09 09:08:42;;;;;;;;;;;;;;;24.41;49.63;100570.50;7406339;19;1930;-37
2022/07/09 09:11:15;;;;;;;;;;;;;;;24.42;49.93;100590.25;7403709;19;1804;-37
2022/07/09 09:13:43;;;;;;;;;;;;;;;24.43;50.06;100600.03;7404765;19;1857;-38
2022/07/09 09:16:16;;;;;;;;;;;;;;;24.42;50.53;100606.47;7403898;19;1725;-37
2022/07/09 09:18:45;;;;;;;;;;;;;;;24.49;51.49;100596.66;7403187;19;1992;-37
2022/07/09 09:21:15;;;;;;;;;;;;;;;24.52;50.25;100590.91;7403771;19;1705;-37
2022/07/09 09:23:44;;;;;;;;;;;;;;;24.41;52.44;100600.22;6382012;19;10000799;-38
2022/07/09 09:26:13;;;;;;;;;;;;;;;23.42;54.21;100596.84;7395871;19;1761;-38
2022/07/09 09:28:48;;;;;;;;;;;;;;;22.55;54.54;100611.66;7395545;19;1751;-37
2022/07/09 09:31:26;;;;;;;;;;;;;;;22.08;54.42;100604.81;7394872;19;1712;-38
2022/07/09 09:33:55;;;;;;;;;;;;;;;21.92;54.19;100610.13;7395904;19;1907;-38
2022/07/09 09:36:30;;;;;;;;;;;;;;;21.99;53.92;100595.03;7395819;19;1720;-37
2022/07/09 09:39:09;;;;;;;;;;;;;;;22.01;53.91;100596.56;7397161;19;1657;-38
2022/07/09 09:41:37;;;;;;;;;;;;;;;21.94;54.43;100597.34;7396714;19;2001;-37
2022/07/09 09:44:09;;;;;;;;;;;;;;;22.03;54.98;100583.78;7396351;19;1751;-37
2022/07/09 09:46:40;;;;;;;;;;;;;;;22.14;55.05;100566.47;7397087;19;1851;-37
2022/07/09 09:49:25;;;;;;;;;;;;;;;22.17;55.39;100590.41;7396945;19;2019;-37
2022/07/09 09:51:58;;;;;;;;;;;;;;;22.14;55.92;100606.03;7401285;19;1823;-37
2022/07/09 09:54:27;;;;;;;;;;;;;;;22.17;56.68;100586.88;7400464;19;1980;-37
2022/07/09 09:56:56;;;;;;;;;;;;;;;22.15;56.15;100591.59;7403265;19;2040;-37
2022/07/09 09:59:25;;;;;;;;;;;;;;;22.11;55.74;100580.28;7402217;19;1978;-38
2022/07/09 10:01:56;;;;;;;;;;;;;;;21.90;55.96;100586.03;7400598;19;1633;-39
2022/07/09 10:04:25;;;;;;;;;;;;;;;21.83;55.59;100580.47;7399285;19;1888;-37
2022/07/09 10:06:53;;;;;;;;;;;;;;;21.83;55.36;100569.69;7403004;19;1513;-37
2022/07/09 10:09:21;;;;;;;;;;;;;;;21.58;55.18;100567.84;7400594;19;1540;-37
2022/07/09 10:11:51;;;;;;;;;;;;;;;21.49;55.03;100560.69;7403219;19;1610;-37
2022/07/09 10:14:20;;;;;;;;;;;;;;;21.62;54.84;100574.59;7401656;19;1852;-37
2022/07/09 10:16:48;;;;;;;;;;;;;;;21.93;54.11;100563.38;7401515;19;1648;-37
2022/07/09 10:19:30;;;;;;;;;;;;;;;22.14;53.91;100554.88;7402260;19;1981;-39
2022/07/09 10:21:59;;;;;;;;;;;;;;;22.03;56.61;100574.88;7396411;19;2473;-42
2022/07/09 10:24:28;;;;;;;;;;;;;;;21.78;56.81;100552.31;7401991;19;1825;-39
2022/07/09 10:27:04;;;;;;;;;;;;;;;21.69;56.81;100556.81;7401071;19;1898;-40
2022/07/09 10:29:33;;;;;;;;;;;;;;;21.59;56.34;100543.47;7394730;19;1761;-43
2022/07/09 10:32:01;;;;;;;;;;;;;;;21.60;58.33;100544.31;7395218;19;1631;-43
2022/07/09 10:34:44;;;;;;;;;;;;;;;22.00;60.16;100545.53;7396592;19;1938;-44
2022/07/09 10:37:15;;;;;;;;;;;;;;;22.43;60.11;100530.28;7398377;19;2185;-44
2022/07/09 10:39:54;;;;;;;;;;;;;;;22.99;57.44;100527.84;7401519;19;1640;-43
2022/07/09 10:42:24;;;;;;;;;;;;;;;23.29;56.51;100534.44;7398922;19;1988;-44
2022/07/09 10:44:53;;;;;;;;;;;;;;;23.44;56.04;100537.31;7399844;19;1494;-44
2022/07/09 10:47:21;;;;;;;;;;;;;;;23.52;55.94;100523.81;7400052;19;1754;-43
2022/07/09 10:49:50;;;;;;;;;;;;;;;23.67;55.70;100521.22;7400629;19;1780;-43
2022/07/09 10:52:21;;;;;;;;;;;;;;;23.69;55.67;100524.59;7398732;19;1776;-44
2022/07/09 10:54:50;;;;;;;;;;;;;;;23.71;56.16;100514.47;7392226;19;1858;-43
2022/07/09 10:57:19;;;;;;;;;;;;;;;23.78;55.78;100520.06;7399135;19;1608;-45
2022/07/09 10:59:48;;;;;;;;;;;;;;;23.79;56.00;100509.06;7399982;19;1631;-44
2022/07/09 11:02:23;;;;;;;;;;;;;;;23.87;56.05;100520.88;7394374;19;1934;-43
2022/07/09 11:04:53;;;;;;;;;;;;;;;23.84;56.34;100515.84;7396775;19;1659;-43
2022/07/09 11:07:24;;;;;;;;;;;;;;;23.86;56.35;100516.50;7398230;19;1548;-44
2022/07/09 11:09:53;;;;;;;;;;;;;;;23.85;57.00;100499.44;7398337;19;1525;-46
2022/07/09 11:12:24;;;;;;;;;;;;;;;23.87;56.79;100500.13;7394300;19;1692;-44
2022/07/09 11:14:53;;;;;;;;;;;;;;;23.90;56.94;100490.84;7396729;19;1869;-44
2022/07/09 11:17:22;;;;;;;;;;;;;;;23.91;58.25;100514.13;7399317;19;1942;-40
2022/07/09 11:19:51;;;;;;;;;;;;;;;23.89;58.45;100498.06;7398528;19;1646;-40
2022/07/09 11:22:20;;;;;;;;;;;;;;;23.97;57.51;100508.00;7396786;19;1872;-42
2022/07/09 11:24:51;;;;;;;;;;;;;;;23.94;57.44;100495.72;7399679;19;1580;-40
2022/07/09 11:27:19;;;;;;;;;;;;;;;23.99;57.43;100503.28;7398611;19;1679;-41
2022/07/09 11:29:52;;;;;;;;;;;;;;;23.97;57.55;100489.97;7399452;19;1511;-42
2022/07/09 11:32:20;;;;;;;;;;;;;;;23.97;57.62;100483.69;7399985;19;1726;-41
2022/07/09 11:34:52;;;;;;;;;;;;;;;23.95;57.71;100491.97;7398606;19;1853;-41
2022/07/09 11:37:34;;;;;;;;;;;;;;;24.05;57.81;100513.38;7396696;19;2041;-40
2022/07/09 11:40:05;;;;;;;;;;;;;;;23.97;57.99;100494.50;7397287;19;1903;-40
2022/07/09 11:42:33;;;;;;;;;;;;;;;23.99;58.10;100508.69;7397501;19;1490;-41
2022/07/09 11:45:03;;;;;;;;;;;;;;;23.99;58.94;100493.34;7397528;19;1920;-41
2022/07/09 11:47:34;;;;;;;;;;;;;;;24.03;58.35;100493.81;7400195;19;1869;-40
2022/07/09 11:50:10;;;;;;;;;;;;;;;24.04;58.13;100479.28;7398720;19;1846;-40
2022/07/09 11:52:38;;;;;;;;;;;;;;;24.03;57.86;100480.28;7399512;19;1963;-42
2022/07/09 11:55:10;;;;;;;;;;;;;;;24.11;58.49;100498.34;7398119;19;1898;-41
2022/07/09 11:57:39;;;;;;;;;;;;;;;24.02;58.47;100492.13;7398371;19;2419;-41
2022/07/09 12:00:23;;;;;;;;;;;;;;;24.05;58.61;100491.75;7398829;19;1585;-42
2022/07/09 12:02:52;;;;;;;;;;;;;;;24.07;58.73;100478.94;7390419;19;1583;-41
2022/07/09 12:05:30;;;;;;;;;;;;;;;24.10;58.91;100484.00;7391796;19;1724;-42
2022/07/09 12:07:59;;;;;;;;;;;;;;;24.13;58.93;100466.56;7393892;19;1407;-42
2022/07/09 12:10:32;;;;;;;;;;;;;;;24.20;58.89;100472.97;7392325;19;1451;-42
2022/07/09 12:13:00;;;;;;;;;;;;;;;24.15;59.45;100470.81;7393163;19;1203;-41
2022/07/09 12:15:29;;;;;;;;;;;;;;;24.17;59.04;100467.91;7394326;19;1872;-43
2022/07/09 12:17:58;;;;;;;;;;;;;;;24.20;58.97;100457.59;7399119;19;1434;-42
2022/07/09 12:20:27;;;;;;;;;;;;;;;24.23;58.94;100456.38;7400182;19;1495;-43
2022/07/09 12:22:56;;;;;;;;;;;;;;;24.17;59.04;100441.75;7404065;19;1533;-43
2022/07/09 12:25:25;;;;;;;;;;;;;;;24.17;59.28;100463.38;7406499;19;1789;-41
2022/07/09 12:27:56;;;;;;;;;;;;;;;24.14;59.71;100463.72;7407835;19;1913;-40
2022/07/09 12:30:24;;;;;;;;;;;;;;;24.10;59.49;100446.16;7406328;19;1826;-40
2022/07/09 12:32:53;;;;;;;;;;;;;;;24.11;60.03;100447.00;7400830;19;1624;-41
2022/07/09 12:35:21;;;;;;;;;;;;;;;24.14;59.40;100436.69;7398412;19;1853;-41
2022/07/09 12:37:50;;;;;;;;;;;;;;;24.24;59.96;100447.28;7399793;19;1549;-44
2022/07/09 12:40:21;;;;;;;;;;;;;;;24.20;59.76;100440.56;7399106;19;1584;-41
2022/07/09 12:43:03;;;;;;;;;;;;;;;24.25;60.14;100432.72;7395947;19;2188;-44
2022/07/09 12:45:34;;;;;;;;;;;;;;;24.19;59.84;100436.16;7403082;19;1584;-44
2022/07/09 12:48:05;;;;;;;;;;;;;;;24.25;59.71;100435.44;7403768;19;1518;-44
2022/07/09 12:50:40;;;;;;;;;;;;;;;24.19;59.57;100438.84;7403592;19;1391;-45
2022/07/09 12:53:22;;;;;;;;;;;;;;;24.21;59.62;100447.63;7404769;19;1710;-44
2022/07/09 12:55:54;;;;;;;;;;;;;;;24.21;59.27;100426.88;7402790;19;1842;-41
2022/07/09 12:58:27;;;;;;;;;;;;;;;24.25;60.00;100431.91;7401461;19;1517;-42
2022/07/09 13:01:03;;;;;;;;;;;;;;;24.26;60.10;100439.84;7399705;19;1532;-41
2022/07/09 13:03:32;;;;;;;;;;;;;;;24.26;60.30;100434.44;7400527;19;1536;-41